Time;durP1;ratioP1;P1;durP2;ratioP2;P2;SDS_P1;SDS_P2;PMS_P1;PMS_P2;Temp;Humidity;BMP_temperature;BMP_pressure;BME280_temperature;BME280_humidity;BME280_pressure;Samples;Min_cycle;Max_cycle;Signal;HPM_P1;HPM_P2
2021/05/06 04:56:56;;;;;;;2.80;1.80;;;;;;;10.25;69.46;97815.34;1680006;84;21348;-61
2021/05/06 05:03:15;;;;;;;;;;;;;;;10.30;68.51;97808.88;1681481;85;21187;-61
2021/05/06 05:04:45;;;;;;;9.03;3.37;;;;;;;10.50;68.65;97842.77;1661162;85;21135;-57
2021/05/06 05:07:37;;;;;;;9.68;2.80;;;;;;;10.76;66.74;97850.66;1651613;86;21219;-55
2021/05/06 05:10:20;;;;;;;18.25;4.47;;;;;;;10.92;64.27;97842.55;1702656;84;21155;-57
2021/05/06 05:12:59;;;;;;;9.73;2.95;;;;;;;11.06;62.63;97823.28;1702174;84;21622;-58
2021/05/06 05:18:28;;;;;;;9.60;2.52;;;;;;;11.15;62.79;97821.36;1683599;84;21212;-57
2021/05/06 05:23:50;;;;;;;11.78;3.22;;;;;;;11.31;65.40;97838.78;1706671;82;21277;-57
2021/05/06 05:26:18;;;;;;;6.85;2.70;;;;;;;11.50;65.07;97841.48;1709360;82;21190;-56
2021/05/06 05:28:48;;;;;;;10.80;3.30;;;;;;;11.63;64.94;97823.22;1702702;84;21316;-57
2021/05/06 05:31:17;;;;;;;14.38;3.58;;;;;;;11.77;63.91;97832.96;1662652;84;21212;-52
2021/05/06 05:33:50;;;;;;;6.33;2.85;;;;;;;11.85;63.54;97839.18;1710646;82;21174;-55
2021/05/06 05:36:20;;;;;;;7.30;2.80;;;;;;;11.89;62.83;97836.34;1703014;83;21657;-62
2021/05/06 05:39:05;;;;;;;8.93;2.90;;;;;;;11.95;62.90;97833.54;1710477;83;21350;-54
2021/05/06 05:41:59;;;;;;;7.03;2.85;;;;;;;12.00;61.76;97832.02;1693286;82;21317;-54
2021/05/06 05:47:25;;;;;;;4.42;2.77;;;;;;;12.27;60.88;97855.38;1696071;84;21281;-52
2021/05/06 05:55:11;;;;;;;10.85;3.40;;;;;;;12.96;56.95;97856.27;1743891;81;21285;-53
2021/05/06 05:57:40;;;;;;;8.08;3.30;;;;;;;13.06;55.57;97855.08;1697926;84;21230;-59
2021/05/06 06:00:12;;;;;;;8.15;3.30;;;;;;;12.78;55.15;97856.06;1718292;83;21190;-57
2021/05/06 06:02:42;;;;;;;10.50;3.87;;;;;;;12.40;56.77;97849.78;1718285;83;21336;-58
2021/05/06 06:05:12;;;;;;;4.87;3.12;;;;;;;12.13;57.36;97866.82;1732624;82;21130;-59
2021/05/06 06:07:42;;;;;;;;;;;;;;;11.86;57.87;97869.82;1749675;82;21336;-61
2021/05/06 06:10:11;;;;;;;7.80;3.12;;;;;;;11.68;58.85;97888.78;1747395;82;20142;-56
2021/05/06 06:12:41;;;;;;;6.08;3.45;;;;;;;11.60;59.09;97878.62;1725726;81;21724;-56
2021/05/06 06:17:49;;;;;;;7.58;2.95;;;;;;;11.67;60.36;97898.27;1779181;79;23184;-58
2021/05/06 06:20:21;;;;;;;7.70;3.50;;;;;;;11.75;59.93;97873.30;1751140;82;21641;-55
2021/05/06 06:22:50;;;;;;;14.78;3.83;;;;;;;11.74;60.05;97882.27;1690124;85;21284;-56
2021/05/06 06:25:24;;;;;;;7.80;3.10;;;;;;;11.73;59.84;97883.31;1707298;84;21530;-61
2021/05/06 06:27:54;;;;;;;4.95;2.90;;;;;;;11.75;60.02;97874.63;1710077;84;21169;-56
2021/05/06 06:30:25;;;;;;;12.73;3.08;;;;;;;11.95;56.70;97902.20;1711079;82;22554;-63
2021/05/06 06:32:54;;;;;;;17.42;3.90;;;;;;;12.30;55.67;97894.55;1710344;84;21207;-52
2021/05/06 06:35:25;;;;;;;12.70;3.25;;;;;;;12.47;54.88;97893.21;1704709;84;21323;-57
2021/05/06 06:37:56;;;;;;;7.50;3.35;;;;;;;12.42;55.71;97901.06;1711360;84;21173;-55
2021/05/06 06:40:25;;;;;;;9.93;3.10;;;;;;;12.42;54.99;97897.90;1687497;84;21594;-56
2021/05/06 06:42:55;;;;;;;14.50;3.70;;;;;;;12.31;54.23;97915.97;1708263;84;21177;-51
2021/05/06 06:45:26;;;;;;;8.25;3.10;;;;;;;12.30;55.28;97908.29;1707499;84;21173;-57
2021/05/06 06:47:56;;;;;;;13.10;3.27;;;;;;;12.55;54.15;97902.56;1694267;84;21307;-55
2021/05/06 06:50:27;;;;;;;12.13;3.20;;;;;;;12.64;53.13;97914.33;1651717;87;21249;-58
2021/05/06 06:52:56;;;;;;;6.55;3.10;;;;;;;12.43;53.19;97896.05;1651786;87;21263;-55
2021/05/06 06:55:25;;;;;;;9.58;3.30;;;;;;;12.10;54.29;97882.34;1670034;85;21580;-54
2021/05/06 06:58:12;;;;;;;8.53;3.20;;;;;;;11.99;55.28;97907.82;1663542;85;21248;-54
2021/05/06 07:00:45;;;;;;;8.30;3.30;;;;;;;12.22;55.54;97902.90;1657632;84;21171;-53
2021/05/06 07:03:14;;;;;;;3.30;2.92;;;;;;;12.73;54.20;97903.59;1678267;85;21173;-54
2021/05/06 07:05:44;;;;;;;7.72;2.80;;;;;;;13.04;52.91;97895.54;1679112;85;21359;-55
2021/05/06 07:08:25;;;;;;;8.70;3.30;;;;;;;13.29;52.15;97902.46;1679137;85;21149;-54
2021/05/06 07:11:01;;;;;;;7.55;3.27;;;;;;;13.53;51.66;97910.95;1679077;85;21174;-55
2021/05/06 07:13:31;;;;;;;5.00;2.65;;;;;;;13.85;50.32;97887.66;1668942;84;21339;-57
2021/05/06 07:16:06;;;;;;;9.40;3.00;;;;;;;13.91;50.05;97906.52;1695072;84;21263;-57
2021/05/06 07:18:35;;;;;;;5.03;2.83;;;;;;;14.03;49.82;97912.44;1682157;85;21114;-53
2021/05/06 07:21:08;;;;;;;13.00;3.20;;;;;;;14.15;49.19;97911.47;1682283;85;21276;-54
2021/05/06 07:23:37;;;;;;;25.45;4.15;;;;;;;14.24;48.09;97892.20;1684707;84;21202;-58
2021/05/06 07:26:08;;;;;;;15.78;3.35;;;;;;;13.95;47.99;97904.97;1709609;84;21285;-53
2021/05/06 07:28:41;;;;;;;12.80;3.33;;;;;;;13.38;48.75;97924.54;1708779;84;21194;-61
2021/05/06 07:31:12;;;;;;;12.40;3.00;;;;;;;12.88;50.70;97921.00;1708841;83;21127;-57
2021/05/06 07:33:47;;;;;;;11.57;3.60;;;;;;;12.81;51.43;97922.23;1721269;82;21155;-60
2021/05/06 07:36:20;;;;;;;7.78;2.70;;;;;;;12.87;50.92;97931.30;1725869;82;21194;-52
2021/05/06 07:38:53;;;;;;;5.83;3.30;;;;;;;12.98;50.33;97937.00;1708496;84;21570;-58
2021/05/06 07:41:26;;;;;;;6.15;3.10;;;;;;;12.94;49.81;97937.73;1687600;84;21210;-55
2021/05/06 07:43:58;;;;;;;7.05;3.12;;;;;;;12.87;50.65;97942.41;1707112;84;21352;-58
2021/05/06 07:46:29;;;;;;;7.40;3.25;;;;;;;12.88;50.06;97936.06;1694888;84;21197;-56
2021/05/06 07:49:02;;;;;;;10.78;3.20;;;;;;;12.90;50.96;97948.02;1694381;84;21227;-56
2021/05/06 07:51:34;;;;;;;6.92;3.20;;;;;;;12.99;50.79;97943.89;1682006;85;21641;-56
2021/05/06 07:54:06;;;;;;;10.93;3.42;;;;;;;13.03;49.47;97950.30;1682051;85;21162;-53
2021/05/06 07:56:37;;;;;;;15.20;3.90;;;;;;;13.04;49.67;97969.62;1681715;85;21592;-56
2021/05/06 07:59:08;;;;;;;8.65;3.00;;;;;;;12.94;49.92;97961.53;1690192;84;21697;-57
2021/05/06 08:01:38;;;;;;;6.92;3.20;;;;;;;12.95;49.12;97970.55;1691945;84;21335;-56
2021/05/06 08:04:07;;;;;;;8.10;3.12;;;;;;;12.98;49.73;97981.97;1691651;83;21756;-55
2021/05/06 08:06:38;;;;;;;5.75;2.90;;;;;;;13.06;49.74;97981.27;1702287;82;21169;-54
2021/05/06 08:09:07;;;;;;;7.22;3.10;;;;;;;13.17;48.69;97993.59;1701429;84;21300;-59
2021/05/06 08:11:38;;;;;;;5.87;3.10;;;;;;;13.20;48.94;97983.33;1643014;87;21672;-57
2021/05/06 08:14:09;;;;;;;9.93;3.17;;;;;;;13.25;49.69;97989.24;1661127;85;21311;-61
2021/05/06 08:16:40;;;;;;;10.48;3.00;;;;;;;13.41;46.14;97978.30;1696469;83;21155;-54
2021/05/06 08:19:12;;;;;;;11.15;3.40;;;;;;;13.23;46.25;97979.41;1697458;84;21313;-54
2021/05/06 08:21:48;;;;;;;13.90;3.02;;;;;;;13.07;46.22;98000.86;1623164;87;21244;-55
2021/05/06 08:24:18;;;;;;;6.97;2.98;;;;;;;12.95;46.95;97986.94;1656487;86;21246;-60
2021/05/06 08:26:47;;;;;;;10.38;3.25;;;;;;;12.91;46.71;97983.20;1693181;84;21126;-60
2021/05/06 08:29:18;;;;;;;8.88;3.00;;;;;;;12.87;47.39;97996.11;1688623;84;21138;-55
2021/05/06 08:31:51;;;;;;;7.83;2.77;;;;;;;12.89;46.94;98006.44;1685046;84;21165;-57
2021/05/06 08:34:21;;;;;;;5.85;2.42;;;;;;;12.88;45.55;98012.77;1701681;83;21620;-56
2021/05/06 08:36:52;;;;;;;6.25;2.90;;;;;;;13.00;45.35;98002.89;1701397;84;21171;-59
2021/05/06 08:39:23;;;;;;;10.30;2.80;;;;;;;13.07;43.68;98011.97;1694848;84;21339;-56
2021/05/06 08:41:54;;;;;;;5.20;2.47;;;;;;;13.07;43.68;98011.97;1683161;84;21194;-57
2021/05/06 08:44:30;;;;;;;6.28;2.95;;;;;;;13.19;43.29;98017.45;1697729;84;21229;-60
2021/05/06 08:47:11;;;;;;;4.28;2.55;;;;;;;13.33;42.39;97989.33;1687934;83;21284;-60
2021/05/06 08:49:44;;;;;;;3.40;2.55;;;;;;;13.40;42.24;98020.37;1693968;84;21193;-56
2021/05/06 08:52:19;;;;;;;11.40;3.20;;;;;;;13.51;42.07;98025.55;1691312;84;21287;-57
2021/05/06 08:54:53;;;;;;;6.15;2.85;;;;;;;13.58;41.11;98020.06;1688021;84;21649;-60
2021/05/06 08:57:26;;;;;;;10.45;2.65;;;;;;;13.45;42.54;98017.27;1694596;84;21185;-56
2021/05/06 08:59:55;;;;;;;;;;;;;;;13.49;42.18;98018.39;1698839;84;21289;-58
2021/05/06 09:02:26;;;;;;;10.13;2.87;;;;;;;13.50;42.62;98027.92;1687826;84;20230;-60
2021/05/06 09:04:56;;;;;;;7.65;2.40;;;;;;;13.64;43.10;98027.02;1694673;84;21292;-61
2021/05/06 09:07:26;;;;;;;7.90;2.55;;;;;;;13.84;42.81;98037.58;1697054;84;21212;-60
2021/05/06 09:09:56;;;;;;;2.60;2.40;;;;;;;14.06;42.03;98024.57;1694268;82;21174;-60
2021/05/06 09:12:40;;;;;;;10.25;2.90;;;;;;;14.23;42.41;98025.80;1661775;85;21311;-51
2021/05/06 09:15:15;;;;;;;8.10;2.72;;;;;;;14.40;41.78;98028.86;1691462;84;21653;-56
2021/05/06 09:17:43;;;;;;;9.75;2.50;;;;;;;14.50;40.38;98035.05;1694485;83;21162;-55
2021/05/06 09:20:19;;;;;;;17.92;3.17;;;;;;;14.46;38.42;98031.83;1692178;84;21166;-54
2021/05/06 09:22:52;;;;;;;4.00;2.20;;;;;;;14.45;38.58;98044.29;1682005;85;21127;-57
2021/05/06 09:25:35;;;;;;;6.03;2.62;;;;;;;14.50;37.66;98050.17;1681943;85;21594;-54
2021/05/06 09:28:14;;;;;;;7.90;2.40;;;;;;;14.43;39.28;98060.16;1681914;85;21207;-50
2021/05/06 09:31:07;;;;;;;7.90;3.00;;;;;;;14.57;39.87;98064.84;1682009;85;21150;-51
2021/05/06 09:33:40;;;;;;;5.75;2.80;;;;;;;14.60;37.93;98062.99;1663110;85;21130;-58
2021/05/06 09:36:30;;;;;;;8.98;2.35;;;;;;;14.41;36.99;98065.72;1681795;85;21735;-56
2021/05/06 09:39:02;;;;;;;4.25;2.30;;;;;;;14.20;36.73;98079.82;1662973;85;21130;-56
2021/05/06 09:41:34;;;;;;;8.10;2.60;;;;;;;14.17;37.56;98085.11;1693378;82;21174;-53
2021/05/06 09:44:20;;;;;;;8.78;2.98;;;;;;;14.25;37.92;98090.48;1745597;82;21111;-57
2021/05/06 09:47:07;;;;;;;10.23;2.85;;;;;;;14.40;38.13;98086.66;1744579;82;21154;-56
2021/05/06 09:49:23;;;;;;;4.83;2.30;;;;;;;14.52;36.83;98078.58;1741168;82;21654;-54
2021/05/06 09:51:57;;;;;;;4.80;2.58;;;;;;;14.68;36.08;98080.81;1696478;81;21581;-55
2021/05/06 09:54:30;;;;;;;5.78;2.85;;;;;;;14.72;36.78;98092.00;1681384;84;21194;-55
2021/05/06 09:57:05;;;;;;;10.38;3.67;;;;;;;14.92;37.07;98078.11;1697964;84;21364;-55
2021/05/06 09:59:42;;;;;;;7.50;3.55;;;;;;;15.18;36.52;98072.42;1696150;84;21826;-59
2021/05/06 10:02:44;;;;;;;10.05;5.53;;;;;;;15.12;36.82;98080.09;1651559;85;21189;-57
2021/05/06 10:05:37;;;;;;;30.95;16.48;;;;;;;15.12;37.11;98080.89;1655247;85;21170;-57
2021/05/06 10:08:19;;;;;;;13.10;5.33;;;;;;;14.99;37.01;98081.34;1588923;88;21161;-55
2021/05/06 10:10:49;;;;;;;6.35;3.05;;;;;;;14.72;36.57;98088.02;1607883;88;21172;-53
2021/05/06 10:13:20;;;;;;;7.47;2.62;;;;;;;14.59;37.73;98081.81;1618134;89;21256;-57
2021/05/06 10:16:06;;;;;;;10.53;2.90;;;;;;;14.89;37.12;98082.58;1600311;88;21677;-58
2021/05/06 10:18:57;;;;;;;18.95;6.97;;;;;;;15.28;36.08;98096.39;1592586;89;21778;-55
2021/05/06 10:21:27;;;;;;;7.87;3.05;;;;;;;15.54;36.10;98091.21;1583847;90;21186;-61
2021/05/06 10:23:58;;;;;;;7.70;2.83;;;;;;;15.65;36.33;98098.20;1582929;90;21196;-63
2021/05/06 10:26:28;;;;;;;7.17;3.05;;;;;;;15.76;35.64;98092.41;1585007;89;21204;-62
2021/05/06 10:28:58;;;;;;;5.90;3.12;;;;;;;15.58;34.61;98095.75;1588939;90;21159;-53
2021/05/06 10:31:27;;;;;;;7.80;2.80;;;;;;;15.38;35.73;98107.08;1579893;89;21189;-55
2021/05/06 10:33:57;;;;;;;5.78;2.75;;;;;;;15.41;36.18;98110.53;1577514;90;21731;-62
2021/05/06 10:36:28;;;;;;;15.10;6.58;;;;;;;15.25;35.10;98080.96;1602890;89;21220;-51
2021/05/06 10:39:00;;;;;;;11.15;6.05;;;;;;;14.77;35.01;98100.53;1570491;89;21817;-57
2021/05/06 10:41:34;;;;;;;7.85;3.30;;;;;;;14.51;35.74;98117.56;1567824;91;21209;-59
2021/05/06 10:44:08;;;;;;;12.75;2.60;;;;;;;14.56;35.98;98108.30;1572185;90;21396;-56
2021/05/06 10:46:58;;;;;;;6.08;2.87;;;;;;;14.70;35.99;98111.89;1577587;89;21456;-58
2021/05/06 10:49:42;;;;;;;6.87;2.65;;;;;;;14.85;35.92;98105.36;1589303;90;21154;-55
2021/05/06 10:52:12;;;;;;;12.82;2.52;;;;;;;15.06;35.56;98112.44;1581679;89;21234;-56
2021/05/06 10:54:51;;;;;;;5.65;2.72;;;;;;;15.36;35.01;98107.05;1616088;89;21673;-58
2021/05/06 10:57:31;;;;;;;6.03;2.90;;;;;;;15.63;35.26;98106.44;1585121;90;21405;-60
2021/05/06 10:59:59;;;;;;;11.00;2.70;;;;;;;15.67;34.52;98112.05;1598673;89;21229;-61
2021/05/06 11:02:46;;;;;;;;;;;;;;;15.31;33.84;98099.88;1591652;90;21244;-55
2021/05/06 11:05:27;;;;;;;3.17;2.72;;;;;;;15.08;34.24;98105.03;1581118;90;20157;-53
2021/05/06 11:08:08;;;;;;;7.37;2.42;;;;;;;15.05;33.95;98102.87;1580656;89;21664;-53
2021/05/06 11:11:06;;;;;;;10.38;2.67;;;;;;;15.16;34.91;98102.95;1584588;90;21392;-53
2021/05/06 11:14:14;;;;;;;7.92;2.37;;;;;;;15.52;33.90;98094.66;1583959;89;21298;-59
2021/05/06 11:16:44;;;;;;;3.85;2.00;;;;;;;15.78;33.20;98112.37;1573396;90;21664;-55
2021/05/06 11:19:14;;;;;;;5.53;2.70;;;;;;;15.75;33.51;98112.08;1563940;90;21256;-57
2021/05/06 11:21:45;;;;;;;8.13;2.33;;;;;;;15.81;33.64;98107.84;1553800;91;21343;-56
2021/05/06 11:24:17;;;;;;;;;;;;;;;15.90;32.64;98114.80;1624710;86;21836;-53
2021/05/06 11:27:13;;;;;;;5.33;2.35;;;;;;;15.84;31.21;98100.70;1657952;86;20153;-52
2021/05/06 11:29:43;;;;;;;5.20;2.47;;;;;;;15.68;31.87;98120.28;1655122;86;21594;-50
2021/05/06 11:32:35;;;;;;;4.87;2.67;;;;;;;15.72;31.69;98113.41;1658078;86;21620;-56
2021/05/06 11:35:06;;;;;;;5.53;2.10;;;;;;;15.76;32.24;98114.47;1658023;86;21181;-49
2021/05/06 11:37:37;;;;;;;11.55;2.30;;;;;;;15.64;31.46;98100.06;1658129;86;21321;-60
2021/05/06 11:40:08;;;;;;;;;;;;;;;15.49;32.19;98099.18;1659803;86;22038;-56
2021/05/06 11:42:39;;;;;;;9.48;3.08;;;;;;;15.46;30.70;98112.43;1657591;86;20258;-57
2021/05/06 11:45:13;;;;;;;8.70;2.60;;;;;;;15.44;31.04;98080.56;1632603;86;21182;-61
2021/05/06 11:47:42;;;;;;;7.62;2.25;;;;;;;15.40;31.50;98116.11;1657517;86;21206;-60
2021/05/06 11:50:28;;;;;;;5.33;2.35;;;;;;;15.45;31.54;98104.72;1657266;86;21355;-61
2021/05/06 11:52:59;;;;;;;7.50;2.80;;;;;;;15.35;31.78;98118.73;1657119;86;21217;-56
2021/05/06 11:55:42;;;;;;;7.37;2.02;;;;;;;15.36;31.76;98115.02;1657816;86;21246;-56
2021/05/06 11:58:12;;;;;;;3.72;2.08;;;;;;;15.57;31.97;98124.70;1658045;86;21258;-55
2021/05/06 12:00:42;;;;;;;6.45;1.98;;;;;;;15.99;31.49;98115.09;1632438;86;21222;-55
2021/05/06 12:03:13;;;;;;;8.03;3.22;;;;;;;16.29;31.21;98115.20;1632185;86;21226;-53
2021/05/06 12:06:01;;;;;;;7.40;3.65;;;;;;;16.36;29.63;98120.27;1658105;86;21237;-53
2021/05/06 12:08:46;;;;;;;2.33;2.12;;;;;;;16.07;29.59;98102.64;1657964;86;21194;-53
2021/05/06 12:11:16;;;;;;;7.67;2.20;;;;;;;15.92;30.43;98110.81;1658210;86;21170;-56
2021/05/06 12:13:46;;;;;;;7.15;3.90;;;;;;;16.08;31.26;98117.52;1653596;85;21230;-57
2021/05/06 12:16:21;;;;;;;6.40;2.52;;;;;;;16.22;30.80;98115.95;1652959;86;21203;-56
2021/05/06 12:19:09;;;;;;;3.30;2.20;;;;;;;16.16;29.97;98120.46;1688691;84;21204;-56
2021/05/06 12:21:51;;;;;;;6.00;2.70;;;;;;;15.98;30.79;98112.16;1702863;84;21164;-55
2021/05/06 12:24:36;;;;;;;6.35;2.33;;;;;;;15.92;30.16;98095.40;1702702;84;21167;-55
2021/05/06 12:27:25;;;;;;;5.95;2.42;;;;;;;15.78;30.06;98119.54;1703099;84;21211;-54
2021/05/06 12:30:03;;;;;;;8.80;2.47;;;;;;;15.70;30.57;98118.69;1702971;84;21690;-58
2021/05/06 12:32:33;;;;;;;5.08;2.22;;;;;;;15.82;30.29;98109.97;1702942;84;21164;-55
2021/05/06 12:35:05;;;;;;;5.28;3.10;;;;;;;15.89;29.38;98112.68;1702802;84;21196;-53
2021/05/06 12:37:38;;;;;;;6.12;2.80;;;;;;;15.87;29.65;98117.44;1703179;84;21302;-57
2021/05/06 12:40:15;;;;;;;5.62;2.55;;;;;;;15.84;29.63;98135.24;1702832;84;21670;-55
2021/05/06 12:42:50;;;;;;;8.18;2.62;;;;;;;15.77;29.94;98133.36;1702628;84;21156;-56
2021/05/06 12:45:32;;;;;;;9.03;2.30;;;;;;;15.71;29.57;98123.73;1679021;84;21266;-52
2021/05/06 12:48:37;;;;;;;10.43;2.30;;;;;;;15.69;30.17;98101.95;1702873;84;21210;-54
2021/05/06 12:51:13;;;;;;;2.37;1.90;;;;;;;15.64;29.21;98114.67;1702778;84;21144;-58
2021/05/06 12:54:07;;;;;;;6.30;2.10;;;;;;;15.41;29.25;98101.24;1702705;84;21189;-58
2021/05/06 12:56:43;;;;;;;7.00;2.35;;;;;;;15.31;29.46;98117.14;1700750;84;21165;-57
2021/05/06 12:59:28;;;;;;;5.05;2.35;;;;;;;15.44;29.22;98115.88;1702252;84;21560;-54
2021/05/06 13:02:11;;;;;;;4.05;2.47;;;;;;;15.61;29.51;98121.02;1702176;84;21149;-54
2021/05/06 13:04:54;;;;;;;5.50;2.60;;;;;;;15.61;29.92;98118.36;1701937;84;21153;-54
2021/05/06 13:07:28;;;;;;;8.15;2.45;;;;;;;15.66;30.34;98127.19;1702087;84;21165;-55
2021/05/06 13:09:57;;;;;;;5.45;2.85;;;;;;;15.78;30.42;98119.54;1694555;84;21173;-56
2021/05/06 13:12:29;;;;;;;5.55;2.30;;;;;;;15.87;30.17;98117.44;1688995;84;21303;-53
2021/05/06 13:15:03;;;;;;;7.00;3.52;;;;;;;15.85;29.11;98089.00;1688750;84;21229;-55
2021/05/06 13:17:34;;;;;;;7.75;2.55;;;;;;;15.69;30.18;98117.09;1697403;84;21205;-57
2021/05/06 13:20:27;;;;;;;4.47;2.65;;;;;;;15.71;29.92;98111.78;1684391;85;21206;-56
2021/05/06 13:23:05;;;;;;;6.42;2.37;;;;;;;15.76;30.30;98130.94;1688429;84;21764;-53
2021/05/06 13:25:53;;;;;;;8.50;2.62;;;;;;;15.83;29.54;98137.64;1645819;87;21203;-58
2021/05/06 13:28:35;;;;;;;5.08;2.42;;;;;;;15.65;30.02;98131.41;1647584;86;21654;-58
2021/05/06 13:31:21;;;;;;;5.47;3.40;;;;;;;15.52;29.87;98127.33;1641190;87;21148;-53
2021/05/06 13:34:24;;;;;;;9.58;2.77;;;;;;;15.59;29.72;98123.12;1640712;87;21200;-50
2021/05/06 13:37:05;;;;;;;10.82;3.58;;;;;;;15.61;28.86;98131.11;1647148;87;21219;-55
2021/05/06 13:39:35;;;;;;;6.72;2.75;;;;;;;15.50;30.31;98140.61;1647543;86;21196;-53
2021/05/06 13:42:06;;;;;;;8.08;2.52;;;;;;;15.49;29.74;98131.84;1647688;87;21211;-58
2021/05/06 13:44:35;;;;;;;5.60;2.52;;;;;;;15.51;29.09;98112.46;1647892;87;21237;-50
2021/05/06 13:47:09;;;;;;;7.12;2.40;;;;;;;15.47;28.65;98129.95;1647666;87;21195;-56
2021/05/06 13:49:40;;;;;;;6.45;2.58;;;;;;;15.43;29.31;98146.69;1640638;87;21196;-57
2021/05/06 13:52:11;;;;;;;6.83;2.85;;;;;;;15.51;29.20;98152.30;1649858;86;21195;-60
2021/05/06 13:54:40;;;;;;;7.58;3.02;;;;;;;15.68;28.86;98140.73;1640251;87;21341;-58
2021/05/06 13:57:10;;;;;;;4.70;2.52;;;;;;;15.78;30.31;98145.58;1640725;87;21168;-60
2021/05/06 13:59:39;;;;;;;5.22;2.50;;;;;;;15.87;31.03;98142.69;1647972;86;21191;-57
2021/05/06 14:02:08;;;;;;;7.62;2.77;;;;;;;15.97;30.39;98143.27;1647673;87;21195;-59
2021/05/06 14:04:38;;;;;;;7.80;2.27;;;;;;;16.01;30.28;98152.33;1647976;86;21751;-59
2021/05/06 14:07:08;;;;;;;11.48;4.17;;;;;;;16.00;30.96;98157.37;1647696;86;21647;-59
2021/05/06 14:09:38;;;;;;;9.20;4.17;;;;;;;15.83;30.72;98148.27;1653680;85;21176;-59
2021/05/06 14:12:08;;;;;;;18.12;7.40;;;;;;;15.65;31.22;98148.68;1673184;85;21183;-59
2021/05/06 14:14:38;;;;;;;22.25;10.32;;;;;;;15.54;30.95;98150.47;1672836;86;21655;-61
2021/05/06 14:17:07;;;;;;;12.68;5.10;;;;;;;15.58;31.64;98142.77;1672566;84;21212;-57
2021/05/06 14:19:36;;;;;;;8.30;3.95;;;;;;;15.64;30.63;98144.42;1669879;85;21595;-59
2021/05/06 14:22:06;;;;;;;11.70;4.15;;;;;;;15.70;29.50;98146.05;1668660;85;21606;-58
2021/05/06 14:24:35;;;;;;;9.15;4.22;;;;;;;15.75;29.96;98156.71;1668469;85;21191;-59
2021/05/06 14:27:07;;;;;;;18.32;6.85;;;;;;;15.80;29.00;98142.66;1668603;86;21219;-58
2021/05/06 14:29:37;;;;;;;7.62;3.22;;;;;;;15.78;29.13;98142.92;1668763;84;21752;-63
2021/05/06 14:32:06;;;;;;;7.45;3.20;;;;;;;15.74;27.81;98144.48;1668265;84;21401;-59
2021/05/06 14:34:35;;;;;;;7.55;2.92;;;;;;;15.66;27.49;98129.05;1668641;85;21334;-61
2021/05/06 14:37:05;;;;;;;6.67;2.70;;;;;;;15.57;27.70;98149.15;1668694;85;21587;-59
2021/05/06 14:39:34;;;;;;;8.93;3.12;;;;;;;15.51;27.91;98146.19;1668909;85;21183;-59
2021/05/06 14:42:05;;;;;;;16.65;5.90;;;;;;;15.47;27.70;98161.03;1668615;85;21152;-59
2021/05/06 14:44:36;;;;;;;16.62;6.10;;;;;;;15.46;28.16;98153.59;1668491;85;21575;-62
2021/05/06 14:47:05;;;;;;;17.07;4.75;;;;;;;15.49;27.43;98162.92;1668487;84;21220;-58
2021/05/06 14:49:35;;;;;;;8.88;2.95;;;;;;;15.48;27.75;98158.11;1668826;84;21211;-59
2021/05/06 14:52:05;;;;;;;5.10;2.52;;;;;;;15.48;27.79;98153.33;1668873;85;21631;-58
2021/05/06 14:54:34;;;;;;;29.45;9.73;;;;;;;15.49;28.22;98157.08;1668551;84;21191;-59
2021/05/06 14:57:05;;;;;;;12.10;3.65;;;;;;;15.52;28.14;98157.08;1668505;84;21238;-60
2021/05/06 14:59:34;;;;;;;13.03;4.90;;;;;;;15.49;27.70;98145.66;1668723;85;21168;-57
2021/05/06 15:02:04;;;;;;;9.58;3.50;;;;;;;15.39;27.89;98140.55;1668518;85;21211;-57
2021/05/06 15:04:33;;;;;;;11.22;3.08;;;;;;;15.34;28.50;98161.75;1668601;85;21231;-57
2021/05/06 15:07:03;;;;;;;10.13;2.92;;;;;;;15.30;28.21;98155.87;1668539;84;21210;-58
2021/05/06 15:09:33;;;;;;;8.35;3.17;;;;;;;15.28;28.04;98154.80;1668726;86;21349;-58
2021/05/06 15:12:04;;;;;;;9.93;4.30;;;;;;;15.27;28.18;98142.59;1668477;85;21207;-58
2021/05/06 15:14:33;;;;;;;14.97;3.60;;;;;;;15.29;29.08;98137.81;1668953;84;21611;-60
2021/05/06 15:17:02;;;;;;;13.43;5.37;;;;;;;15.28;28.62;98139.41;1668393;84;21187;-59
2021/05/06 15:19:31;;;;;;;8.80;2.90;;;;;;;15.22;28.97;98153.70;1668799;85;21614;-57
2021/05/06 15:22:01;;;;;;;12.98;3.83;;;;;;;15.16;29.20;98146.23;1668461;84;21187;-58
2021/05/06 15:24:32;;;;;;;6.03;2.98;;;;;;;15.11;28.70;98144.33;1667882;85;21171;-55
2021/05/06 15:27:02;;;;;;;8.85;3.12;;;;;;;15.06;28.62;98150.92;1668438;84;21215;-58
2021/05/06 15:29:31;;;;;;;12.37;3.67;;;;;;;15.03;29.07;98149.31;1668841;85;21591;-57
2021/05/06 15:32:00;;;;;;;10.38;3.02;;;;;;;15.03;28.89;98150.64;1668706;84;21220;-58
2021/05/06 15:34:30;;;;;;;8.20;3.52;;;;;;;15.03;28.86;98145.34;1668563;85;21754;-55
2021/05/06 15:37:01;;;;;;;8.45;2.98;;;;;;;15.03;28.83;98147.46;1667124;86;21317;-58
2021/05/06 15:39:30;;;;;;;8.15;3.00;;;;;;;15.05;28.68;98157.29;1668636;85;21757;-58
2021/05/06 15:41:59;;;;;;;4.95;2.67;;;;;;;15.05;28.79;98143.22;1668395;84;21203;-55
2021/05/06 15:44:29;;;;;;;8.60;2.70;;;;;;;14.98;28.77;98143.97;1668638;85;21186;-58
2021/05/06 15:47:04;;;;;;;7.28;2.50;;;;;;;14.92;28.37;98145.78;1668676;85;21224;-56
2021/05/06 15:49:34;;;;;;;10.10;3.50;;;;;;;14.86;28.28;98147.58;1668611;85;21167;-57
2021/05/06 15:52:04;;;;;;;9.95;4.62;;;;;;;14.86;28.15;98153.42;1668580;85;21182;-57
2021/05/06 15:54:33;;;;;;;12.68;4.95;;;;;;;14.86;28.16;98152.89;1669003;85;21591;-58
2021/05/06 15:57:04;;;;;;;6.17;3.05;;;;;;;14.90;28.19;98151.84;1668779;85;21631;-57
2021/05/06 15:59:36;;;;;;;5.00;2.35;;;;;;;14.92;28.20;98151.08;1668499;85;21140;-57
2021/05/06 16:02:08;;;;;;;4.08;2.22;;;;;;;14.93;28.13;98146.57;1667117;85;21180;-56
2021/05/06 16:04:40;;;;;;;9.20;2.22;;;;;;;14.98;28.35;98142.64;1669081;86;21595;-55
2021/05/06 16:07:09;;;;;;;7.72;2.40;;;;;;;15.02;28.06;98145.03;1668572;85;21183;-56
2021/05/06 16:09:38;;;;;;;9.40;2.75;;;;;;;15.08;27.82;98158.13;1668555;85;21195;-55
2021/05/06 16:12:08;;;;;;;7.70;2.20;;;;;;;15.13;27.88;98144.86;1668791;85;21159;-57
2021/05/06 16:14:38;;;;;;;5.90;2.30;;;;;;;15.12;27.86;98144.59;1668834;86;21333;-58
2021/05/06 16:17:07;;;;;;;11.40;3.00;;;;;;;14.99;28.27;98155.65;1668550;84;21639;-53
2021/05/06 16:19:38;;;;;;;;;;;;;;;14.92;28.11;98155.59;1673710;84;21658;-55
2021/05/06 16:22:07;;;;;;;8.88;3.35;;;;;;;14.88;27.73;98157.94;1659424;85;20484;-56
2021/05/06 16:24:36;;;;;;;12.50;3.35;;;;;;;14.86;27.79;98150.77;1673585;84;21147;-55
2021/05/06 16:27:06;;;;;;;7.22;2.20;;;;;;;14.86;27.51;98160.05;1673514;84;21191;-56
2021/05/06 16:29:36;;;;;;;5.17;2.40;;;;;;;14.84;27.88;98155.50;1673687;84;21183;-57
2021/05/06 16:32:06;;;;;;;7.43;2.60;;;;;;;14.80;27.97;98151.78;1659931;86;21176;-56
2021/05/06 16:34:37;;;;;;;4.83;2.52;;;;;;;14.76;27.83;98162.08;1673999;84;21187;-55
2021/05/06 16:39:55;;;;;;;6.67;2.75;;;;;;;14.68;28.12;98148.45;1673947;84;21600;-57
2021/05/06 16:43:10;;;;;;;9.23;2.80;;;;;;;14.61;28.58;98145.48;1657349;85;21322;-57
2021/05/06 16:44:51;;;;;;;3.90;2.15;;;;;;;14.54;28.02;98153.38;1661115;85;21191;-56
2021/05/06 16:47:20;;;;;;;7.92;2.55;;;;;;;14.45;28.62;98158.31;1673748;84;21180;-55
2021/05/06 16:49:51;;;;;;;2.60;2.02;;;;;;;14.39;28.52;98157.95;1674093;84;21604;-56
2021/05/06 16:52:20;;;;;;;6.17;1.95;;;;;;;14.28;29.07;98154.41;1673617;85;21187;-59
2021/05/06 16:54:50;;;;;;;6.03;2.30;;;;;;;14.19;28.49;98151.91;1680852;85;21174;-58
2021/05/06 16:57:20;;;;;;;5.83;2.45;;;;;;;14.08;28.73;98154.17;1689917;84;21739;-56
2021/05/06 16:59:50;;;;;;;10.78;4.28;;;;;;;13.97;28.77;98147.14;1689767;84;21170;-57
2021/05/06 17:02:20;;;;;;;8.35;3.58;;;;;;;13.86;29.63;98147.53;1689896;83;21740;-59
2021/05/06 17:04:49;;;;;;;11.15;3.98;;;;;;;13.78;29.45;98139.50;1690041;85;21188;-54
2021/05/06 17:07:18;;;;;;;8.93;3.60;;;;;;;13.67;29.49;98140.41;1689889;85;21177;-56
2021/05/06 17:09:50;;;;;;;5.45;2.80;;;;;;;13.57;29.95;98146.89;1689810;84;21570;-57
2021/05/06 17:12:21;;;;;;;8.78;2.70;;;;;;;13.46;30.02;98144.62;1689973;84;21578;-53
2021/05/06 17:14:50;;;;;;;6.78;2.85;;;;;;;13.37;29.86;98148.74;1690041;85;21193;-57
2021/05/06 17:17:19;;;;;;;9.05;3.35;;;;;;;13.28;30.90;98156.80;1689742;85;21178;-53
2021/05/06 17:19:49;;;;;;;6.63;3.30;;;;;;;13.20;30.60;98165.13;1692855;84;21617;-58